Estación Meteorológica Peña el Pijo (Robertgarden) [ 02/03/23 04:09:19 CET ]

Fecha Hora Presion(HPa) Temp (°C) Humedad % Rocio (°C) Viento ( m/s) Direccion Lluvia 1Hora(mm) Lluvia 24H(mm) LLuvia Total(mm)
2010-Jan-14 01:01:13 998.400 10.3 88 8.4 1.7 SSW     66.30
2010-Jan-14 02:03:22 997.800 10.4 82 7.4         66.30
2010-Jan-14 03:01:13 997.100 9.6 82 6.6         66.30
2010-Jan-14 04:01:11 996.800 9.2 84 6.6 3.1 E     66.30
2010-Jan-14 05:01:14 997.100 9.4 81 6.3 1.5 SSE     66.30
2010-Jan-14 06:01:14 996.900 8.7 77 4.9         66.30
2010-Jan-14 07:01:13 997.900 8.1 78 4.5 2.1 E     66.30
2010-Jan-14 08:01:16 998.600 8.1 73 3.6 1.5 S     66.30
2010-Jan-14 09:01:14 999.300 7.1 77 3.3 2.6 S     66.30
2010-Jan-14 10:01:14 999.800 7.9 71 3.0 1.7 S     66.30
2010-Jan-14 11:01:17 1000.300 9.8 65 3.5 1.5 ESE     66.30
2010-Jan-14 12:01:13 1000.700 9.0 65 2.8 4.5 SSE     66.30
2010-Jan-14 13:01:14 1000.300 8.6 68 3.0 2.2 NNW     66.30
2010-Jan-14 14:01:12 1001.100 5.4 75 1.3         66.30
2010-Jan-14 15:01:13 1001.800 4.6 82 1.8         66.30
2010-Jan-14 16:01:11 1001.800 5.3 81 2.3         66.30
2010-Jan-14 17:31:18 1002.200 5.4 78 1.8         66.30
2010-Jan-14 18:01:14 1002.900 5.3 76 1.4 2.3 ESE     66.30
2010-Jan-14 19:01:16 1003.500 5.9 66 0.0 2.4 SW     66.30
2010-Jan-14 20:01:17 1005.000 5.5 66 -0.4 1.6 SSW     66.30
2010-Jan-14 21:01:15 1005.900 5.4 66 -0.5 0.6 SSW     66.30
2010-Jan-14 22:01:18 1006.500 5.3 67 -0.3         66.30
2010-Jan-14 23:01:18 1007.600 5.3 67 -0.3         66.30

Temperatura Máxima:10°    Temperatura Mínima:
Presión Máxima:1007.600 Hpa    Presión Mínima:996.800 Hpa


Volver